Trilla, Illinois
Current Conditions -  °F | °C
As of 3:53 PM on Friday 24 Oct 2014 (Local Time) from KMTO Reporting Station
Scattered Clouds Scattered Clouds  
Wind Chill: 67°   Ceiling: Unl
Heat Index: 67°   Visibility: 10mi
Dew Point: 54°   Wind: 9mph
Humidity: 63%   Direction: 270°W
Pressure: 30.02"   Gusts: 21mph
Location:  39.37°N, 88.35°W
Report Text: KMTO 242053Z AUTO 27008G18KT 10SM SCT036 19/12 A3002 RMK AO2 SLP164 T01940122 56013
Loading
Personal Weather Stations






























Interactive Weather Map
Tropical Storm Tracking
New forecast layout! Learn more

10-Day Weather Forecast

Advertisements
Track Severe Weather on mobile